sensor_id;sensor_type;location;lat;lon;timestamp;temperature;humidity
27026;DHT22;14565;48.626;8.978;2023-08-01T00:02:17;17.10;99.90
27026;DHT22;14565;48.626;8.978;2023-08-01T00:04:42;16.90;99.90
27026;DHT22;14565;48.626;8.978;2023-08-01T00:07:08;17.00;99.90
27026;DHT22;14565;48.626;8.978;2023-08-01T00:09:33;17.00;99.90
27026;DHT22;14565;48.626;8.978;2023-08-01T00:11:59;17.00;99.90
27026;DHT22;14565;48.626;8.978;2023-08-01T00:14:25;17.00;99.90
27026;DHT22;14565;48.626;8.978;2023-08-01T00:16:51;17.00;99.90
27026;DHT22;14565;48.626;8.978;2023-08-01T00:19:17;17.00;99.90
27026;DHT22;14565;48.626;8.978;2023-08-01T00:21:43;17.00;99.90
27026;DHT22;14565;48.626;8.978;2023-08-01T00:24:09;17.00;99.90
27026;DHT22;14565;48.626;8.978;2023-08-01T00:26:34;17.00;99.90
27026;DHT22;14565;48.626;8.978;2023-08-01T00:29:00;17.00;99.90
27026;DHT22;14565;48.626;8.978;2023-08-01T00:31:26;17.00;99.90
27026;DHT22;14565;48.626;8.978;2023-08-01T00:33:52;17.00;99.90
27026;DHT22;14565;48.626;8.978;2023-08-01T00:36:17;17.00;99.90
27026;DHT22;14565;48.626;8.978;2023-08-01T00:38:43;17.10;99.90
27026;DHT22;14565;48.626;8.978;2023-08-01T00:41:09;17.00;99.90
27026;DHT22;14565;48.626;8.978;2023-08-01T00:43:35;17.10;99.90
27026;DHT22;14565;48.626;8.978;2023-08-01T00:46:03;17.00;99.90
27026;DHT22;14565;48.626;8.978;2023-08-01T00:48:29;17.10;99.90
27026;DHT22;14565;48.626;8.978;2023-08-01T00:50:56;17.10;99.90
27026;DHT22;14565;48.626;8.978;2023-08-01T00:53:22;17.20;99.90
27026;DHT22;14565;48.626;8.978;2023-08-01T00:55:48;17.20;99.90
27026;DHT22;14565;48.626;8.978;2023-08-01T00:58:15;17.30;99.90
27026;DHT22;14565;48.626;8.978;2023-08-01T01:00:40;17.30;99.90
27026;DHT22;14565;48.626;8.978;2023-08-01T01:03:07;17.30;99.90
27026;DHT22;14565;48.626;8.978;2023-08-01T01:05:36;17.20;99.90
27026;DHT22;14565;48.626;8.978;2023-08-01T01:08:03;17.30;99.90
27026;DHT22;14565;48.626;8.978;2023-08-01T01:10:30;17.30;99.90
27026;DHT22;14565;48.626;8.978;2023-08-01T01:12:56;17.30;99.90
27026;DHT22;14565;48.626;8.978;2023-08-01T01:15:21;17.20;99.90
27026;DHT22;14565;48.626;8.978;2023-08-01T01:17:47;16.90;99.90
27026;DHT22;14565;48.626;8.978;2023-08-01T01:20:13;16.80;99.90
27026;DHT22;14565;48.626;8.978;2023-08-01T01:22:39;16.60;99.90
27026;DHT22;14565;48.626;8.978;2023-08-01T01:25:07;16.30;99.90
27026;DHT22;14565;48.626;8.978;2023-08-01T01:27:34;16.10;99.90
27026;DHT22;14565;48.626;8.978;2023-08-01T01:30:00;16.10;99.90
27026;DHT22;14565;48.626;8.978;2023-08-01T01:32:27;16.00;99.90
27026;DHT22;14565;48.626;8.978;2023-08-01T01:34:53;16.00;99.90
27026;DHT22;14565;48.626;8.978;2023-08-01T01:37:19;16.00;99.90
27026;DHT22;14565;48.626;8.978;2023-08-01T01:39:45;15.90;99.90
27026;DHT22;14565;48.626;8.978;2023-08-01T01:42:10;15.90;99.90
27026;DHT22;14565;48.626;8.978;2023-08-01T01:44:38;15.90;99.90
27026;DHT22;14565;48.626;8.978;2023-08-01T01:47:04;16.00;99.90
27026;DHT22;14565;48.626;8.978;2023-08-01T01:49:30;16.00;99.90
27026;DHT22;14565;48.626;8.978;2023-08-01T01:51:55;15.90;99.90
27026;DHT22;14565;48.626;8.978;2023-08-01T01:54:21;16.00;99.90
27026;DHT22;14565;48.626;8.978;2023-08-01T01:56:47;16.00;99.90
27026;DHT22;14565;48.626;8.978;2023-08-01T01:59:12;15.90;99.90
27026;DHT22;14565;48.626;8.978;2023-08-01T02:01:38;16.00;99.90
27026;DHT22;14565;48.626;8.978;2023-08-01T02:04:04;16.10;99.90
27026;DHT22;14565;48.626;8.978;2023-08-01T02:06:29;16.30;99.90
27026;DHT22;14565;48.626;8.978;2023-08-01T02:08:55;16.40;99.90
27026;DHT22;14565;48.626;8.978;2023-08-01T02:11:20;16.50;99.90
27026;DHT22;14565;48.626;8.978;2023-08-01T02:13:46;16.50;99.90
27026;DHT22;14565;48.626;8.978;2023-08-01T02:16:11;16.50;99.90
27026;DHT22;14565;48.626;8.978;2023-08-01T02:18:37;16.60;99.90
27026;DHT22;14565;48.626;8.978;2023-08-01T02:21:03;16.50;99.90
27026;DHT22;14565;48.626;8.978;2023-08-01T02:23:28;16.50;99.90
27026;DHT22;14565;48.626;8.978;2023-08-01T02:25:54;16.40;99.90
27026;DHT22;14565;48.626;8.978;2023-08-01T02:28:20;16.50;99.90
27026;DHT22;14565;48.626;8.978;2023-08-01T02:30:46;16.50;99.90
27026;DHT22;14565;48.626;8.978;2023-08-01T02:33:11;16.50;99.90
27026;DHT22;14565;48.626;8.978;2023-08-01T02:35:37;16.50;99.90
27026;DHT22;14565;48.626;8.978;2023-08-01T02:38:03;16.60;99.90
27026;DHT22;14565;48.626;8.978;2023-08-01T02:40:29;16.60;99.90
27026;DHT22;14565;48.626;8.978;2023-08-01T02:42:54;16.70;99.90
27026;DHT22;14565;48.626;8.978;2023-08-01T02:45:20;16.80;99.90
27026;DHT22;14565;48.626;8.978;2023-08-01T02:47:46;16.90;99.90
27026;DHT22;14565;48.626;8.978;2023-08-01T02:50:11;17.00;99.90
27026;DHT22;14565;48.626;8.978;2023-08-01T02:52:37;17.00;99.90
27026;DHT22;14565;48.626;8.978;2023-08-01T02:55:03;17.10;99.90
27026;DHT22;14565;48.626;8.978;2023-08-01T02:57:28;17.10;99.90
27026;DHT22;14565;48.626;8.978;2023-08-01T02:59:54;17.10;99.90
27026;DHT22;14565;48.626;8.978;2023-08-01T03:02:20;17.20;99.90
27026;DHT22;14565;48.626;8.978;2023-08-01T03:04:45;17.20;99.90
27026;DHT22;14565;48.626;8.978;2023-08-01T03:07:11;17.20;99.90
27026;DHT22;14565;48.626;8.978;2023-08-01T03:09:36;17.20;99.90
27026;DHT22;14565;48.626;8.978;2023-08-01T03:12:02;17.30;99.90
27026;DHT22;14565;48.626;8.978;2023-08-01T03:14:28;17.30;99.90
27026;DHT22;14565;48.626;8.978;2023-08-01T03:16:53;17.30;99.90
27026;DHT22;14565;48.626;8.978;2023-08-01T03:19:19;17.30;99.90
27026;DHT22;14565;48.626;8.978;2023-08-01T03:21:45;17.30;99.90
27026;DHT22;14565;48.626;8.978;2023-08-01T03:24:10;17.30;99.90
27026;DHT22;14565;48.626;8.978;2023-08-01T03:26:36;17.40;99.90
27026;DHT22;14565;48.626;8.978;2023-08-01T03:29:02;17.40;99.90
27026;DHT22;14565;48.626;8.978;2023-08-01T03:31:27;17.40;99.90
27026;DHT22;14565;48.626;8.978;2023-08-01T03:33:53;17.40;99.90
27026;DHT22;14565;48.626;8.978;2023-08-01T03:36:19;17.40;99.90
27026;DHT22;14565;48.626;8.978;2023-08-01T03:38:45;17.30;99.90
27026;DHT22;14565;48.626;8.978;2023-08-01T03:41:11;17.30;99.90
27026;DHT22;14565;48.626;8.978;2023-08-01T03:43:37;17.30;99.90
27026;DHT22;14565;48.626;8.978;2023-08-01T03:46:02;17.30;99.90
27026;DHT22;14565;48.626;8.978;2023-08-01T03:48:28;17.20;99.90
27026;DHT22;14565;48.626;8.978;2023-08-01T03:50:56;17.20;99.90
27026;DHT22;14565;48.626;8.978;2023-08-01T03:53:21;17.20;99.90
27026;DHT22;14565;48.626;8.978;2023-08-01T03:55:47;17.10;99.90
27026;DHT22;14565;48.626;8.978;2023-08-01T03:58:14;17.10;99.90
27026;DHT22;14565;48.626;8.978;2023-08-01T04:00:40;17.10;99.90
27026;DHT22;14565;48.626;8.978;2023-08-01T04:03:05;17.10;99.90
27026;DHT22;14565;48.626;8.978;2023-08-01T04:05:31;17.10;99.90
27026;DHT22;14565;48.626;8.978;2023-08-01T04:07:57;17.00;99.90
27026;DHT22;14565;48.626;8.978;2023-08-01T04:10:23;17.10;99.90
27026;DHT22;14565;48.626;8.978;2023-08-01T04:12:49;17.10;99.90
27026;DHT22;14565;48.626;8.978;2023-08-01T04:15:15;17.10;99.90
27026;DHT22;14565;48.626;8.978;2023-08-01T04:17:40;17.10;99.90
27026;DHT22;14565;48.626;8.978;2023-08-01T04:20:06;17.10;99.90
27026;DHT22;14565;48.626;8.978;2023-08-01T04:22:32;17.20;99.90
27026;DHT22;14565;48.626;8.978;2023-08-01T04:24:58;17.20;99.90
27026;DHT22;14565;48.626;8.978;2023-08-01T04:27:23;17.20;99.90
27026;DHT22;14565;48.626;8.978;2023-08-01T04:29:49;17.20;99.90
27026;DHT22;14565;48.626;8.978;2023-08-01T04:32:15;17.20;99.90
27026;DHT22;14565;48.626;8.978;2023-08-01T04:34:41;17.20;99.90
27026;DHT22;14565;48.626;8.978;2023-08-01T04:37:07;17.10;99.90
27026;DHT22;14565;48.626;8.978;2023-08-01T04:39:33;17.10;99.90
27026;DHT22;14565;48.626;8.978;2023-08-01T04:41:59;17.10;99.90
27026;DHT22;14565;48.626;8.978;2023-08-01T04:44:25;17.00;99.90
27026;DHT22;14565;48.626;8.978;2023-08-01T04:46:50;17.00;99.90
27026;DHT22;14565;48.626;8.978;2023-08-01T04:49:16;16.90;99.90
27026;DHT22;14565;48.626;8.978;2023-08-01T04:51:41;16.90;99.90
27026;DHT22;14565;48.626;8.978;2023-08-01T04:54:07;17.00;99.90
27026;DHT22;14565;48.626;8.978;2023-08-01T04:56:33;16.90;99.90
27026;DHT22;14565;48.626;8.978;2023-08-01T04:58:58;16.90;99.90
27026;DHT22;14565;48.626;8.978;2023-08-01T05:01:24;16.90;99.90
27026;DHT22;14565;48.626;8.978;2023-08-01T05:03:49;16.90;99.90
27026;DHT22;14565;48.626;8.978;2023-08-01T05:06:15;17.00;99.90
27026;DHT22;14565;48.626;8.978;2023-08-01T05:08:41;17.00;99.90
27026;DHT22;14565;48.626;8.978;2023-08-01T05:11:06;17.10;99.90
27026;DHT22;14565;48.626;8.978;2023-08-01T05:13:32;17.10;99.90
27026;DHT22;14565;48.626;8.978;2023-08-01T05:15:58;17.10;99.90
27026;DHT22;14565;48.626;8.978;2023-08-01T05:18:23;17.00;99.90
27026;DHT22;14565;48.626;8.978;2023-08-01T05:20:49;17.10;99.90
27026;DHT22;14565;48.626;8.978;2023-08-01T05:23:15;17.10;99.90
27026;DHT22;14565;48.626;8.978;2023-08-01T05:25:40;17.10;99.90
27026;DHT22;14565;48.626;8.978;2023-08-01T05:28:06;17.20;99.90
27026;DHT22;14565;48.626;8.978;2023-08-01T05:30:32;17.20;99.90
27026;DHT22;14565;48.626;8.978;2023-08-01T05:32:57;17.30;99.90
27026;DHT22;14565;48.626;8.978;2023-08-01T05:35:23;17.30;99.90
27026;DHT22;14565;48.626;8.978;2023-08-01T05:37:49;17.40;99.90
27026;DHT22;14565;48.626;8.978;2023-08-01T05:40:14;17.40;99.90
27026;DHT22;14565;48.626;8.978;2023-08-01T05:42:40;17.40;99.90
27026;DHT22;14565;48.626;8.978;2023-08-01T05:45:06;17.50;99.90
27026;DHT22;14565;48.626;8.978;2023-08-01T05:47:32;17.50;99.90
27026;DHT22;14565;48.626;8.978;2023-08-01T05:49:57;17.50;99.90
27026;DHT22;14565;48.626;8.978;2023-08-01T05:52:23;17.50;99.90
27026;DHT22;14565;48.626;8.978;2023-08-01T05:54:49;17.50;99.90
27026;DHT22;14565;48.626;8.978;2023-08-01T05:57:15;17.40;99.90
27026;DHT22;14565;48.626;8.978;2023-08-01T05:59:41;17.50;99.90
27026;DHT22;14565;48.626;8.978;2023-08-01T06:02:07;17.50;99.90
27026;DHT22;14565;48.626;8.978;2023-08-01T06:04:32;17.50;99.90
27026;DHT22;14565;48.626;8.978;2023-08-01T06:06:58;17.50;99.90
27026;DHT22;14565;48.626;8.978;2023-08-01T06:09:24;17.50;99.90
27026;DHT22;14565;48.626;8.978;2023-08-01T06:11:50;17.40;99.90
27026;DHT22;14565;48.626;8.978;2023-08-01T06:14:16;17.40;99.90
27026;DHT22;14565;48.626;8.978;2023-08-01T06:16:42;17.40;99.90
27026;DHT22;14565;48.626;8.978;2023-08-01T06:19:08;17.30;99.90
27026;DHT22;14565;48.626;8.978;2023-08-01T06:21:33;17.40;99.90
27026;DHT22;14565;48.626;8.978;2023-08-01T06:23:59;17.40;99.90
27026;DHT22;14565;48.626;8.978;2023-08-01T06:26:25;17.50;99.90
27026;DHT22;14565;48.626;8.978;2023-08-01T06:28:50;17.50;99.90
27026;DHT22;14565;48.626;8.978;2023-08-01T06:31:19;17.40;99.90
27026;DHT22;14565;48.626;8.978;2023-08-01T06:33:45;17.50;99.90
27026;DHT22;14565;48.626;8.978;2023-08-01T06:36:13;17.50;99.90
27026;DHT22;14565;48.626;8.978;2023-08-01T06:38:39;17.50;99.90
27026;DHT22;14565;48.626;8.978;2023-08-01T06:41:05;17.40;99.90
27026;DHT22;14565;48.626;8.978;2023-08-01T06:43:31;17.40;99.90
27026;DHT22;14565;48.626;8.978;2023-08-01T06:45:57;17.30;99.90
27026;DHT22;14565;48.626;8.978;2023-08-01T06:48:23;17.30;99.90
27026;DHT22;14565;48.626;8.978;2023-08-01T06:50:48;17.20;99.90
27026;DHT22;14565;48.626;8.978;2023-08-01T06:53:14;17.20;99.90
27026;DHT22;14565;48.626;8.978;2023-08-01T06:55:41;17.20;99.90
27026;DHT22;14565;48.626;8.978;2023-08-01T06:58:06;17.30;99.90
27026;DHT22;14565;48.626;8.978;2023-08-01T07:00:32;17.40;99.90
27026;DHT22;14565;48.626;8.978;2023-08-01T07:02:58;17.50;99.90
27026;DHT22;14565;48.626;8.978;2023-08-01T07:05:24;17.50;99.90
27026;DHT22;14565;48.626;8.978;2023-08-01T07:07:50;17.60;99.90
27026;DHT22;14565;48.626;8.978;2023-08-01T07:10:16;17.70;99.90
27026;DHT22;14565;48.626;8.978;2023-08-01T07:12:42;17.70;99.90
27026;DHT22;14565;48.626;8.978;2023-08-01T07:15:09;17.50;99.90
27026;DHT22;14565;48.626;8.978;2023-08-01T07:17:35;17.30;99.90
27026;DHT22;14565;48.626;8.978;2023-08-01T07:20:00;17.20;99.90
27026;DHT22;14565;48.626;8.978;2023-08-01T07:22:26;17.20;99.90
27026;DHT22;14565;48.626;8.978;2023-08-01T07:24:55;17.20;99.90
27026;DHT22;14565;48.626;8.978;2023-08-01T07:27:21;17.30;99.90
27026;DHT22;14565;48.626;8.978;2023-08-01T07:29:47;17.30;99.90
27026;DHT22;14565;48.626;8.978;2023-08-01T07:32:12;17.40;99.90
27026;DHT22;14565;48.626;8.978;2023-08-01T07:34:38;17.40;99.90
27026;DHT22;14565;48.626;8.978;2023-08-01T07:37:04;17.30;99.90
27026;DHT22;14565;48.626;8.978;2023-08-01T07:39:32;17.20;99.90
27026;DHT22;14565;48.626;8.978;2023-08-01T07:42:00;17.00;99.90
27026;DHT22;14565;48.626;8.978;2023-08-01T07:44:26;16.80;99.90
27026;DHT22;14565;48.626;8.978;2023-08-01T07:46:51;16.60;99.90
27026;DHT22;14565;48.626;8.978;2023-08-01T07:49:17;16.50;99.90
27026;DHT22;14565;48.626;8.978;2023-08-01T07:51:43;16.30;99.90
27026;DHT22;14565;48.626;8.978;2023-08-01T07:54:10;16.30;99.90
27026;DHT22;14565;48.626;8.978;2023-08-01T07:56:36;16.20;99.90
27026;DHT22;14565;48.626;8.978;2023-08-01T07:59:01;16.20;99.90
27026;DHT22;14565;48.626;8.978;2023-08-01T08:01:27;16.10;99.90
27026;DHT22;14565;48.626;8.978;2023-08-01T08:03:52;16.20;99.90
27026;DHT22;14565;48.626;8.978;2023-08-01T08:06:18;16.00;99.90
27026;DHT22;14565;48.626;8.978;2023-08-01T08:08:46;16.00;99.90
27026;DHT22;14565;48.626;8.978;2023-08-01T08:11:12;15.80;99.90
27026;DHT22;14565;48.626;8.978;2023-08-01T08:13:38;15.70;99.90
27026;DHT22;14565;48.626;8.978;2023-08-01T08:16:05;15.70;99.90
27026;DHT22;14565;48.626;8.978;2023-08-01T08:18:31;15.70;99.90
27026;DHT22;14565;48.626;8.978;2023-08-01T08:20:57;15.80;99.90
27026;DHT22;14565;48.626;8.978;2023-08-01T08:23:23;15.90;99.90
27026;DHT22;14565;48.626;8.978;2023-08-01T08:25:49;16.00;99.90
27026;DHT22;14565;48.626;8.978;2023-08-01T08:28:27;15.90;99.90
27026;DHT22;14565;48.626;8.978;2023-08-01T08:30:53;16.00;99.90
27026;DHT22;14565;48.626;8.978;2023-08-01T08:33:22;16.00;99.90
27026;DHT22;14565;48.626;8.978;2023-08-01T08:35:50;16.30;99.90
27026;DHT22;14565;48.626;8.978;2023-08-01T08:38:17;16.30;99.90
27026;DHT22;14565;48.626;8.978;2023-08-01T08:43:26;16.50;99.90
27026;DHT22;14565;48.626;8.978;2023-08-01T08:45:56;16.40;99.90
27026;DHT22;14565;48.626;8.978;2023-08-01T08:48:23;16.40;99.90
27026;DHT22;14565;48.626;8.978;2023-08-01T08:50:50;16.30;99.90
27026;DHT22;14565;48.626;8.978;2023-08-01T08:53:17;16.50;99.90
27026;DHT22;14565;48.626;8.978;2023-08-01T08:55:43;16.50;99.90
27026;DHT22;14565;48.626;8.978;2023-08-01T08:58:09;16.50;99.90
27026;DHT22;14565;48.626;8.978;2023-08-01T09:00:38;16.50;99.90
27026;DHT22;14565;48.626;8.978;2023-08-01T09:03:04;16.50;99.90
27026;DHT22;14565;48.626;8.978;2023-08-01T09:08:28;16.70;99.90
27026;DHT22;14565;48.626;8.978;2023-08-01T09:10:54;16.70;99.90
27026;DHT22;14565;48.626;8.978;2023-08-01T09:13:19;16.60;99.90
27026;DHT22;14565;48.626;8.978;2023-08-01T09:15:46;16.70;99.90
27026;DHT22;14565;48.626;8.978;2023-08-01T09:18:12;16.60;99.90
27026;DHT22;14565;48.626;8.978;2023-08-01T09:20:48;16.80;99.90
27026;DHT22;14565;48.626;8.978;2023-08-01T09:23:14;16.90;99.90
27026;DHT22;14565;48.626;8.978;2023-08-01T09:25:41;17.20;99.90
27026;DHT22;14565;48.626;8.978;2023-08-01T09:28:23;17.10;99.90
27026;DHT22;14565;48.626;8.978;2023-08-01T09:30:52;17.20;99.90
27026;DHT22;14565;48.626;8.978;2023-08-01T09:33:19;17.10;99.90
27026;DHT22;14565;48.626;8.978;2023-08-01T09:35:45;17.00;99.90
27026;DHT22;14565;48.626;8.978;2023-08-01T09:38:14;17.00;99.90
27026;DHT22;14565;48.626;8.978;2023-08-01T09:40:41;17.10;99.90
27026;DHT22;14565;48.626;8.978;2023-08-01T09:43:08;17.10;99.90
27026;DHT22;14565;48.626;8.978;2023-08-01T09:45:33;17.10;99.90
27026;DHT22;14565;48.626;8.978;2023-08-01T09:48:01;17.10;99.90
27026;DHT22;14565;48.626;8.978;2023-08-01T09:50:27;17.30;99.90
27026;DHT22;14565;48.626;8.978;2023-08-01T09:52:53;17.40;99.90
27026;DHT22;14565;48.626;8.978;2023-08-01T09:57:53;17.60;99.90
27026;DHT22;14565;48.626;8.978;2023-08-01T10:00:22;17.40;99.90
27026;DHT22;14565;48.626;8.978;2023-08-01T10:02:48;17.40;99.90
27026;DHT22;14565;48.626;8.978;2023-08-01T10:05:15;17.50;99.90
27026;DHT22;14565;48.626;8.978;2023-08-01T10:07:42;17.50;99.90
27026;DHT22;14565;48.626;8.978;2023-08-01T10:10:09;17.60;99.90
27026;DHT22;14565;48.626;8.978;2023-08-01T10:12:36;17.60;99.90
27026;DHT22;14565;48.626;8.978;2023-08-01T10:15:04;17.50;99.90
27026;DHT22;14565;48.626;8.978;2023-08-01T10:17:30;17.60;99.90
27026;DHT22;14565;48.626;8.978;2023-08-01T10:19:56;17.60;99.90
27026;DHT22;14565;48.626;8.978;2023-08-01T10:22:24;17.60;99.90
27026;DHT22;14565;48.626;8.978;2023-08-01T10:24:51;17.70;99.90
27026;DHT22;14565;48.626;8.978;2023-08-01T10:27:21;18.10;99.90
27026;DHT22;14565;48.626;8.978;2023-08-01T10:30:01;17.90;99.90
27026;DHT22;14565;48.626;8.978;2023-08-01T10:32:37;18.10;99.90
27026;DHT22;14565;48.626;8.978;2023-08-01T10:35:04;18.00;99.90
27026;DHT22;14565;48.626;8.978;2023-08-01T10:37:46;18.00;99.90
27026;DHT22;14565;48.626;8.978;2023-08-01T10:40:12;18.20;99.90
27026;DHT22;14565;48.626;8.978;2023-08-01T10:42:40;18.30;99.90
27026;DHT22;14565;48.626;8.978;2023-08-01T10:45:07;18.90;99.90
27026;DHT22;14565;48.626;8.978;2023-08-01T10:47:33;19.20;99.90
27026;DHT22;14565;48.626;8.978;2023-08-01T10:49:59;19.70;99.90
27026;DHT22;14565;48.626;8.978;2023-08-01T10:52:26;19.90;99.90
27026;DHT22;14565;48.626;8.978;2023-08-01T10:55:00;20.30;99.90
27026;DHT22;14565;48.626;8.978;2023-08-01T10:57:28;20.30;99.90
27026;DHT22;14565;48.626;8.978;2023-08-01T10:59:55;20.60;99.90
27026;DHT22;14565;48.626;8.978;2023-08-01T11:02:23;20.60;99.90
27026;DHT22;14565;48.626;8.978;2023-08-01T11:04:59;20.60;99.90
27026;DHT22;14565;48.626;8.978;2023-08-01T11:07:26;20.40;99.90
27026;DHT22;14565;48.626;8.978;2023-08-01T11:12:28;20.10;99.90
27026;DHT22;14565;48.626;8.978;2023-08-01T11:14:59;20.30;99.90
27026;DHT22;14565;48.626;8.978;2023-08-01T11:17:25;20.30;99.90
27026;DHT22;14565;48.626;8.978;2023-08-01T11:19:51;20.40;99.90
27026;DHT22;14565;48.626;8.978;2023-08-01T11:22:16;20.30;99.90
27026;DHT22;14565;48.626;8.978;2023-08-01T11:24:49;20.40;99.90
27026;DHT22;14565;48.626;8.978;2023-08-01T11:27:16;20.10;99.90
27026;DHT22;14565;48.626;8.978;2023-08-01T11:29:41;20.30;99.90
27026;DHT22;14565;48.626;8.978;2023-08-01T11:32:07;20.10;99.90
27026;DHT22;14565;48.626;8.978;2023-08-01T11:34:43;20.20;99.90
27026;DHT22;14565;48.626;8.978;2023-08-01T11:37:14;20.30;99.90
27026;DHT22;14565;48.626;8.978;2023-08-01T11:39:40;20.40;99.90
27026;DHT22;14565;48.626;8.978;2023-08-01T11:42:06;20.60;99.90
27026;DHT22;14565;48.626;8.978;2023-08-01T11:44:33;20.90;99.90
27026;DHT22;14565;48.626;8.978;2023-08-01T11:46:59;21.10;99.90
27026;DHT22;14565;48.626;8.978;2023-08-01T11:49:26;21.30;99.90
27026;DHT22;14565;48.626;8.978;2023-08-01T11:51:52;21.60;99.90
27026;DHT22;14565;48.626;8.978;2023-08-01T11:54:17;21.70;99.90
27026;DHT22;14565;48.626;8.978;2023-08-01T11:56:44;21.50;99.90
27026;DHT22;14565;48.626;8.978;2023-08-01T11:59:13;21.30;99.90
27026;DHT22;14565;48.626;8.978;2023-08-01T12:01:43;21.10;99.90
27026;DHT22;14565;48.626;8.978;2023-08-01T12:04:10;20.70;99.90
27026;DHT22;14565;48.626;8.978;2023-08-01T12:06:37;20.70;99.90
27026;DHT22;14565;48.626;8.978;2023-08-01T12:09:11;20.80;99.90
27026;DHT22;14565;48.626;8.978;2023-08-01T12:11:40;21.00;99.90
27026;DHT22;14565;48.626;8.978;2023-08-01T12:14:09;20.90;99.90
27026;DHT22;14565;48.626;8.978;2023-08-01T12:16:36;20.70;99.90
27026;DHT22;14565;48.626;8.978;2023-08-01T12:19:03;20.70;99.90
27026;DHT22;14565;48.626;8.978;2023-08-01T12:21:30;20.80;99.90
27026;DHT22;14565;48.626;8.978;2023-08-01T12:24:04;20.90;99.90
27026;DHT22;14565;48.626;8.978;2023-08-01T12:26:30;20.90;99.90
27026;DHT22;14565;48.626;8.978;2023-08-01T12:28:55;20.70;99.90
27026;DHT22;14565;48.626;8.978;2023-08-01T12:31:22;20.80;99.90
27026;DHT22;14565;48.626;8.978;2023-08-01T12:33:48;20.80;99.90
27026;DHT22;14565;48.626;8.978;2023-08-01T12:36:15;20.70;99.90
27026;DHT22;14565;48.626;8.978;2023-08-01T12:38:41;20.60;99.90
27026;DHT22;14565;48.626;8.978;2023-08-01T12:41:08;20.80;99.90
27026;DHT22;14565;48.626;8.978;2023-08-01T12:43:34;20.90;99.90
27026;DHT22;14565;48.626;8.978;2023-08-01T12:46:00;21.00;99.90
27026;DHT22;14565;48.626;8.978;2023-08-01T12:48:26;21.20;99.90
27026;DHT22;14565;48.626;8.978;2023-08-01T12:50:52;21.30;99.90
27026;DHT22;14565;48.626;8.978;2023-08-01T12:53:19;21.30;99.90
27026;DHT22;14565;48.626;8.978;2023-08-01T12:55:46;21.50;99.90
27026;DHT22;14565;48.626;8.978;2023-08-01T12:58:13;21.50;99.90
27026;DHT22;14565;48.626;8.978;2023-08-01T13:00:42;21.40;99.90
27026;DHT22;14565;48.626;8.978;2023-08-01T13:03:08;21.10;99.90
27026;DHT22;14565;48.626;8.978;2023-08-01T13:05:35;21.10;99.90
27026;DHT22;14565;48.626;8.978;2023-08-01T13:08:01;21.10;99.90
27026;DHT22;14565;48.626;8.978;2023-08-01T13:10:30;20.90;99.90
27026;DHT22;14565;48.626;8.978;2023-08-01T13:12:57;20.90;99.90
27026;DHT22;14565;48.626;8.978;2023-08-01T13:15:23;21.00;99.90
27026;DHT22;14565;48.626;8.978;2023-08-01T13:17:49;20.90;99.90
27026;DHT22;14565;48.626;8.978;2023-08-01T13:20:15;21.20;99.90
27026;DHT22;14565;48.626;8.978;2023-08-01T13:22:42;21.30;99.90
27026;DHT22;14565;48.626;8.978;2023-08-01T13:25:10;21.30;99.90
27026;DHT22;14565;48.626;8.978;2023-08-01T13:27:37;21.30;99.90
27026;DHT22;14565;48.626;8.978;2023-08-01T13:30:03;21.30;99.90
27026;DHT22;14565;48.626;8.978;2023-08-01T13:32:28;21.30;99.90
27026;DHT22;14565;48.626;8.978;2023-08-01T13:34:54;21.30;99.90
27026;DHT22;14565;48.626;8.978;2023-08-01T13:37:20;21.40;99.90
27026;DHT22;14565;48.626;8.978;2023-08-01T13:39:46;21.40;99.90
27026;DHT22;14565;48.626;8.978;2023-08-01T13:42:12;21.40;99.90
27026;DHT22;14565;48.626;8.978;2023-08-01T13:44:40;21.10;99.90
27026;DHT22;14565;48.626;8.978;2023-08-01T13:47:10;21.20;99.90
27026;DHT22;14565;48.626;8.978;2023-08-01T13:49:36;21.30;99.90
27026;DHT22;14565;48.626;8.978;2023-08-01T13:52:03;21.60;99.90
27026;DHT22;14565;48.626;8.978;2023-08-01T13:54:30;21.50;99.90
27026;DHT22;14565;48.626;8.978;2023-08-01T13:56:55;21.30;99.90
27026;DHT22;14565;48.626;8.978;2023-08-01T13:59:21;21.40;99.90
27026;DHT22;14565;48.626;8.978;2023-08-01T14:01:47;21.30;99.90
27026;DHT22;14565;48.626;8.978;2023-08-01T14:04:13;21.60;99.90
27026;DHT22;14565;48.626;8.978;2023-08-01T14:06:42;21.40;99.90
27026;DHT22;14565;48.626;8.978;2023-08-01T14:09:11;21.50;99.90
27026;DHT22;14565;48.626;8.978;2023-08-01T14:11:37;21.50;99.90
27026;DHT22;14565;48.626;8.978;2023-08-01T14:14:03;21.30;99.90
27026;DHT22;14565;48.626;8.978;2023-08-01T14:16:29;21.40;99.90
27026;DHT22;14565;48.626;8.978;2023-08-01T14:18:55;21.50;99.90
27026;DHT22;14565;48.626;8.978;2023-08-01T14:21:21;21.60;99.90
27026;DHT22;14565;48.626;8.978;2023-08-01T14:23:47;21.50;99.90
27026;DHT22;14565;48.626;8.978;2023-08-01T14:26:13;21.60;99.90
27026;DHT22;14565;48.626;8.978;2023-08-01T14:28:39;21.70;99.90
27026;DHT22;14565;48.626;8.978;2023-08-01T14:31:05;21.60;99.90
27026;DHT22;14565;48.626;8.978;2023-08-01T14:33:31;21.60;99.90
27026;DHT22;14565;48.626;8.978;2023-08-01T14:35:57;21.60;99.90
27026;DHT22;14565;48.626;8.978;2023-08-01T14:38:23;21.60;99.90
27026;DHT22;14565;48.626;8.978;2023-08-01T14:40:49;21.60;99.90
27026;DHT22;14565;48.626;8.978;2023-08-01T14:43:14;21.80;99.90
27026;DHT22;14565;48.626;8.978;2023-08-01T14:45:41;21.80;99.90
27026;DHT22;14565;48.626;8.978;2023-08-01T14:48:07;21.80;99.90
27026;DHT22;14565;48.626;8.978;2023-08-01T14:50:33;21.90;99.90
27026;DHT22;14565;48.626;8.978;2023-08-01T14:53:03;21.80;99.90
27026;DHT22;14565;48.626;8.978;2023-08-01T14:55:29;21.60;99.90
27026;DHT22;14565;48.626;8.978;2023-08-01T14:57:55;21.60;99.90
27026;DHT22;14565;48.626;8.978;2023-08-01T15:00:21;21.60;99.90
27026;DHT22;14565;48.626;8.978;2023-08-01T15:02:46;21.60;99.90
27026;DHT22;14565;48.626;8.978;2023-08-01T15:05:14;21.40;99.90
27026;DHT22;14565;48.626;8.978;2023-08-01T15:07:39;21.40;99.90
27026;DHT22;14565;48.626;8.978;2023-08-01T15:10:05;21.70;99.90
27026;DHT22;14565;48.626;8.978;2023-08-01T15:12:31;21.70;99.90
27026;DHT22;14565;48.626;8.978;2023-08-01T15:14:57;21.40;99.90
27026;DHT22;14565;48.626;8.978;2023-08-01T15:17:23;21.50;99.90
27026;DHT22;14565;48.626;8.978;2023-08-01T15:19:50;21.70;99.90
27026;DHT22;14565;48.626;8.978;2023-08-01T15:22:19;21.60;99.90
27026;DHT22;14565;48.626;8.978;2023-08-01T15:24:45;21.50;99.90
27026;DHT22;14565;48.626;8.978;2023-08-01T15:27:12;21.50;99.90
27026;DHT22;14565;48.626;8.978;2023-08-01T15:29:38;21.60;99.90
27026;DHT22;14565;48.626;8.978;2023-08-01T15:32:04;21.50;99.90
27026;DHT22;14565;48.626;8.978;2023-08-01T15:34:30;21.50;99.90
27026;DHT22;14565;48.626;8.978;2023-08-01T15:36:56;21.70;99.90